sensor_id;sensor_type;location;lat;lon;timestamp;temperature;humidity
13072;DHT22;6602;58.934;11.166;2023-05-07T00:03:51;6.10;99.90
13072;DHT22;6602;58.934;11.166;2023-05-07T00:08:53;6.10;99.90
13072;DHT22;6602;58.934;11.166;2023-05-07T00:13:54;6.10;99.90
13072;DHT22;6602;58.934;11.166;2023-05-07T00:18:56;6.10;99.90
13072;DHT22;6602;58.934;11.166;2023-05-07T00:24:06;6.00;99.90
13072;DHT22;6602;58.934;11.166;2023-05-07T00:29:14;5.90;99.90
13072;DHT22;6602;58.934;11.166;2023-05-07T00:34:15;5.70;99.90
13072;DHT22;6602;58.934;11.166;2023-05-07T00:39:16;5.70;99.90
13072;DHT22;6602;58.934;11.166;2023-05-07T00:44:18;5.60;99.90
13072;DHT22;6602;58.934;11.166;2023-05-07T00:49:33;5.50;99.90
13072;DHT22;6602;58.934;11.166;2023-05-07T00:54:38;5.40;99.90
13072;DHT22;6602;58.934;11.166;2023-05-07T00:59:42;5.30;99.90
13072;DHT22;6602;58.934;11.166;2023-05-07T01:04:43;5.30;99.90
13072;DHT22;6602;58.934;11.166;2023-05-07T01:09:48;5.30;99.90
13072;DHT22;6602;58.934;11.166;2023-05-07T01:14:54;5.40;99.90
13072;DHT22;6602;58.934;11.166;2023-05-07T01:19:58;5.30;99.90
13072;DHT22;6602;58.934;11.166;2023-05-07T01:25:03;5.20;99.90
13072;DHT22;6602;58.934;11.166;2023-05-07T01:30:12;5.10;99.90
13072;DHT22;6602;58.934;11.166;2023-05-07T01:35:36;5.00;99.90
13072;DHT22;6602;58.934;11.166;2023-05-07T01:40:48;4.90;99.90
13072;DHT22;6602;58.934;11.166;2023-05-07T01:46:04;4.80;99.90
13072;DHT22;6602;58.934;11.166;2023-05-07T01:51:11;4.80;99.90
13072;DHT22;6602;58.934;11.166;2023-05-07T01:56:18;4.70;99.90
13072;DHT22;6602;58.934;11.166;2023-05-07T02:01:31;4.60;99.90
13072;DHT22;6602;58.934;11.166;2023-05-07T02:06:36;4.50;99.90
13072;DHT22;6602;58.934;11.166;2023-05-07T02:11:43;4.40;99.90
13072;DHT22;6602;58.934;11.166;2023-05-07T02:16:46;4.40;99.90
13072;DHT22;6602;58.934;11.166;2023-05-07T02:21:47;4.30;99.90
13072;DHT22;6602;58.934;11.166;2023-05-07T02:26:55;4.20;99.90
13072;DHT22;6602;58.934;11.166;2023-05-07T02:31:58;4.20;99.90
13072;DHT22;6602;58.934;11.166;2023-05-07T02:37:02;4.10;99.90
13072;DHT22;6602;58.934;11.166;2023-05-07T02:42:08;4.20;99.90
13072;DHT22;6602;58.934;11.166;2023-05-07T02:47:13;4.10;99.90
13072;DHT22;6602;58.934;11.166;2023-05-07T02:52:35;4.10;99.90
13072;DHT22;6602;58.934;11.166;2023-05-07T02:57:41;4.00;99.90
13072;DHT22;6602;58.934;11.166;2023-05-07T03:02:42;3.90;99.90
13072;DHT22;6602;58.934;11.166;2023-05-07T03:07:49;3.80;99.90
13072;DHT22;6602;58.934;11.166;2023-05-07T03:12:53;3.80;99.90
13072;DHT22;6602;58.934;11.166;2023-05-07T03:18:03;3.80;99.90
13072;DHT22;6602;58.934;11.166;2023-05-07T03:23:16;3.60;99.90
13072;DHT22;6602;58.934;11.166;2023-05-07T03:28:19;3.60;99.90
13072;DHT22;6602;58.934;11.166;2023-05-07T03:33:26;3.60;99.90
13072;DHT22;6602;58.934;11.166;2023-05-07T03:38:32;3.90;99.90
13072;DHT22;6602;58.934;11.166;2023-05-07T03:43:33;4.10;99.90
13072;DHT22;6602;58.934;11.166;2023-05-07T03:48:36;4.30;99.90
13072;DHT22;6602;58.934;11.166;2023-05-07T03:53:40;4.60;99.90
13072;DHT22;6602;58.934;11.166;2023-05-07T03:58:43;4.50;99.90
13072;DHT22;6602;58.934;11.166;2023-05-07T04:03:48;4.40;99.90
13072;DHT22;6602;58.934;11.166;2023-05-07T04:08:51;4.50;99.90
13072;DHT22;6602;58.934;11.166;2023-05-07T04:14:04;4.50;99.90
13072;DHT22;6602;58.934;11.166;2023-05-07T04:19:12;4.60;99.90
13072;DHT22;6602;58.934;11.166;2023-05-07T04:24:15;5.10;99.90
13072;DHT22;6602;58.934;11.166;2023-05-07T04:29:18;5.80;99.90
13072;DHT22;6602;58.934;11.166;2023-05-07T04:34:20;6.10;99.90
13072;DHT22;6602;58.934;11.166;2023-05-07T04:39:33;6.60;99.90
13072;DHT22;6602;58.934;11.166;2023-05-07T04:44:36;7.10;99.90
13072;DHT22;6602;58.934;11.166;2023-05-07T04:49:43;7.50;99.90
13072;DHT22;6602;58.934;11.166;2023-05-07T04:54:48;8.00;99.90
13072;DHT22;6602;58.934;11.166;2023-05-07T04:59:54;9.10;99.90
13072;DHT22;6602;58.934;11.166;2023-05-07T05:04:56;10.10;99.90
13072;DHT22;6602;58.934;11.166;2023-05-07T05:09:57;10.80;99.90
13072;DHT22;6602;58.934;11.166;2023-05-07T05:14:58;11.40;99.90
13072;DHT22;6602;58.934;11.166;2023-05-07T05:19:59;11.70;99.90
13072;DHT22;6602;58.934;11.166;2023-05-07T05:25:02;11.90;99.90
13072;DHT22;6602;58.934;11.166;2023-05-07T05:30:03;12.00;99.90
13072;DHT22;6602;58.934;11.166;2023-05-07T05:35:05;11.90;99.90
13072;DHT22;6602;58.934;11.166;2023-05-07T05:40:07;12.10;99.90
13072;DHT22;6602;58.934;11.166;2023-05-07T05:45:08;12.10;99.90
13072;DHT22;6602;58.934;11.166;2023-05-07T05:50:10;12.70;99.90
13072;DHT22;6602;58.934;11.166;2023-05-07T05:55:11;12.90;99.90
13072;DHT22;6602;58.934;11.166;2023-05-07T06:00:16;13.40;99.90
13072;DHT22;6602;58.934;11.166;2023-05-07T06:05:17;13.80;99.90
13072;DHT22;6602;58.934;11.166;2023-05-07T06:10:48;14.10;99.90
13072;DHT22;6602;58.934;11.166;2023-05-07T06:15:49;14.00;99.90
13072;DHT22;6602;58.934;11.166;2023-05-07T06:20:58;14.40;99.90
13072;DHT22;6602;58.934;11.166;2023-05-07T06:25:58;14.50;99.90
13072;DHT22;6602;58.934;11.166;2023-05-07T06:31:11;14.30;99.90
13072;DHT22;6602;58.934;11.166;2023-05-07T06:36:14;14.30;99.90
13072;DHT22;6602;58.934;11.166;2023-05-07T06:41:17;14.70;99.90
13072;DHT22;6602;58.934;11.166;2023-05-07T06:46:18;14.90;99.90
13072;DHT22;6602;58.934;11.166;2023-05-07T06:51:25;15.10;99.90
13072;DHT22;6602;58.934;11.166;2023-05-07T06:56:26;15.30;99.90
13072;DHT22;6602;58.934;11.166;2023-05-07T07:01:29;15.50;99.90
13072;DHT22;6602;58.934;11.166;2023-05-07T07:06:34;15.60;99.90
13072;DHT22;6602;58.934;11.166;2023-05-07T07:11:39;15.40;99.90
13072;DHT22;6602;58.934;11.166;2023-05-07T07:16:40;15.30;99.90
13072;DHT22;6602;58.934;11.166;2023-05-07T07:21:42;15.40;99.90
13072;DHT22;6602;58.934;11.166;2023-05-07T07:26:42;14.90;99.90
13072;DHT22;6602;58.934;11.166;2023-05-07T07:31:45;15.00;99.90
13072;DHT22;6602;58.934;11.166;2023-05-07T07:36:53;14.90;99.90
13072;DHT22;6602;58.934;11.166;2023-05-07T07:42:28;14.90;99.90
13072;DHT22;6602;58.934;11.166;2023-05-07T07:47:31;15.00;99.90
13072;DHT22;6602;58.934;11.166;2023-05-07T07:52:32;15.10;99.90
13072;DHT22;6602;58.934;11.166;2023-05-07T07:57:35;15.30;99.90
13072;DHT22;6602;58.934;11.166;2023-05-07T08:02:42;15.30;99.90
13072;DHT22;6602;58.934;11.166;2023-05-07T08:07:43;15.50;99.90
13072;DHT22;6602;58.934;11.166;2023-05-07T08:12:45;15.40;99.90
13072;DHT22;6602;58.934;11.166;2023-05-07T08:17:50;15.70;99.90
13072;DHT22;6602;58.934;11.166;2023-05-07T08:22:58;16.30;99.90
13072;DHT22;6602;58.934;11.166;2023-05-07T08:28:00;16.50;99.90
13072;DHT22;6602;58.934;11.166;2023-05-07T08:33:04;16.70;99.90
13072;DHT22;6602;58.934;11.166;2023-05-07T08:38:08;17.10;99.90
13072;DHT22;6602;58.934;11.166;2023-05-07T08:43:17;17.20;99.90
13072;DHT22;6602;58.934;11.166;2023-05-07T08:48:35;17.80;99.90
13072;DHT22;6602;58.934;11.166;2023-05-07T08:53:42;16.60;99.90
13072;DHT22;6602;58.934;11.166;2023-05-07T08:58:44;15.30;99.90
13072;DHT22;6602;58.934;11.166;2023-05-07T09:03:46;15.10;99.90
13072;DHT22;6602;58.934;11.166;2023-05-07T09:09:00;14.90;99.90
13072;DHT22;6602;58.934;11.166;2023-05-07T09:14:02;15.00;99.90
13072;DHT22;6602;58.934;11.166;2023-05-07T09:19:03;14.90;99.90
13072;DHT22;6602;58.934;11.166;2023-05-07T09:24:05;14.70;99.90
13072;DHT22;6602;58.934;11.166;2023-05-07T09:29:09;14.20;99.90
13072;DHT22;6602;58.934;11.166;2023-05-07T09:34:13;14.00;99.90
13072;DHT22;6602;58.934;11.166;2023-05-07T09:39:17;13.80;99.90
13072;DHT22;6602;58.934;11.166;2023-05-07T09:44:19;13.80;99.90
13072;DHT22;6602;58.934;11.166;2023-05-07T09:49:23;13.70;99.90
13072;DHT22;6602;58.934;11.166;2023-05-07T09:54:29;14.00;99.90
13072;DHT22;6602;58.934;11.166;2023-05-07T09:59:42;14.20;99.90
13072;DHT22;6602;58.934;11.166;2023-05-07T10:04:44;14.20;99.90
13072;DHT22;6602;58.934;11.166;2023-05-07T10:09:52;14.00;99.90
13072;DHT22;6602;58.934;11.166;2023-05-07T10:14:54;14.10;99.90
13072;DHT22;6602;58.934;11.166;2023-05-07T10:19:59;14.20;99.90
13072;DHT22;6602;58.934;11.166;2023-05-07T10:25:31;13.80;99.90
13072;DHT22;6602;58.934;11.166;2023-05-07T10:36:04;13.60;99.90
13072;DHT22;6602;58.934;11.166;2023-05-07T10:41:23;13.30;99.90
13072;DHT22;6602;58.934;11.166;2023-05-07T10:46:28;13.30;99.90
13072;DHT22;6602;58.934;11.166;2023-05-07T10:51:34;13.30;99.90
13072;DHT22;6602;58.934;11.166;2023-05-07T10:56:43;13.40;99.90
13072;DHT22;6602;58.934;11.166;2023-05-07T11:02:02;13.40;99.90
13072;DHT22;6602;58.934;11.166;2023-05-07T11:07:16;13.40;99.90
13072;DHT22;6602;58.934;11.166;2023-05-07T11:18:00;13.30;99.90
13072;DHT22;6602;58.934;11.166;2023-05-07T11:23:01;13.00;99.90
13072;DHT22;6602;58.934;11.166;2023-05-07T11:28:07;12.70;99.90
13072;DHT22;6602;58.934;11.166;2023-05-07T11:33:30;12.70;99.90
13072;DHT22;6602;58.934;11.166;2023-05-07T11:38:43;13.10;99.90
13072;DHT22;6602;58.934;11.166;2023-05-07T11:43:58;13.10;99.90
13072;DHT22;6602;58.934;11.166;2023-05-07T11:49:10;13.10;99.90
13072;DHT22;6602;58.934;11.166;2023-05-07T11:54:16;12.80;99.90
13072;DHT22;6602;58.934;11.166;2023-05-07T11:59:38;12.90;99.90
13072;DHT22;6602;58.934;11.166;2023-05-07T12:05:20;12.70;99.90
13072;DHT22;6602;58.934;11.166;2023-05-07T12:10:31;12.80;99.90
13072;DHT22;6602;58.934;11.166;2023-05-07T12:16:11;12.90;99.90
13072;DHT22;6602;58.934;11.166;2023-05-07T12:21:17;12.90;99.90
13072;DHT22;6602;58.934;11.166;2023-05-07T12:26:19;12.90;99.90
13072;DHT22;6602;58.934;11.166;2023-05-07T12:31:31;13.00;99.90
13072;DHT22;6602;58.934;11.166;2023-05-07T12:36:39;13.10;99.90
13072;DHT22;6602;58.934;11.166;2023-05-07T12:41:57;13.40;99.90
13072;DHT22;6602;58.934;11.166;2023-05-07T12:47:02;13.20;99.90
13072;DHT22;6602;58.934;11.166;2023-05-07T12:52:04;13.10;99.90
13072;DHT22;6602;58.934;11.166;2023-05-07T12:57:07;13.20;99.90
13072;DHT22;6602;58.934;11.166;2023-05-07T13:02:08;13.10;99.90
13072;DHT22;6602;58.934;11.166;2023-05-07T13:07:11;13.20;99.90
13072;DHT22;6602;58.934;11.166;2023-05-07T13:12:12;13.20;99.90
13072;DHT22;6602;58.934;11.166;2023-05-07T13:17:13;13.30;99.90
13072;DHT22;6602;58.934;11.166;2023-05-07T13:22:14;13.30;99.90
13072;DHT22;6602;58.934;11.166;2023-05-07T13:27:22;13.20;99.90
13072;DHT22;6602;58.934;11.166;2023-05-07T13:32:23;13.30;99.90
13072;DHT22;6602;58.934;11.166;2023-05-07T13:37:24;13.30;99.90
13072;DHT22;6602;58.934;11.166;2023-05-07T13:42:25;13.20;99.90
13072;DHT22;6602;58.934;11.166;2023-05-07T13:47:26;13.00;99.90
13072;DHT22;6602;58.934;11.166;2023-05-07T13:52:27;12.80;99.90
13072;DHT22;6602;58.934;11.166;2023-05-07T13:57:28;12.70;99.90
13072;DHT22;6602;58.934;11.166;2023-05-07T14:02:29;12.50;99.90
13072;DHT22;6602;58.934;11.166;2023-05-07T14:07:35;12.60;99.90
13072;DHT22;6602;58.934;11.166;2023-05-07T14:12:45;12.60;99.90
13072;DHT22;6602;58.934;11.166;2023-05-07T14:17:46;12.50;99.90
13072;DHT22;6602;58.934;11.166;2023-05-07T14:22:53;12.30;99.90
13072;DHT22;6602;58.934;11.166;2023-05-07T14:27:59;12.50;99.90
13072;DHT22;6602;58.934;11.166;2023-05-07T14:33:00;12.50;99.90
13072;DHT22;6602;58.934;11.166;2023-05-07T14:38:11;12.50;99.90
13072;DHT22;6602;58.934;11.166;2023-05-07T14:43:31;12.30;99.90
13072;DHT22;6602;58.934;11.166;2023-05-07T14:48:36;12.20;99.90
13072;DHT22;6602;58.934;11.166;2023-05-07T14:53:42;12.20;99.90
13072;DHT22;6602;58.934;11.166;2023-05-07T14:58:48;12.10;99.90
13072;DHT22;6602;58.934;11.166;2023-05-07T15:03:56;12.20;99.90
13072;DHT22;6602;58.934;11.166;2023-05-07T15:09:02;12.20;99.90
13072;DHT22;6602;58.934;11.166;2023-05-07T15:14:03;12.10;99.90
13072;DHT22;6602;58.934;11.166;2023-05-07T15:19:15;12.20;99.90
13072;DHT22;6602;58.934;11.166;2023-05-07T15:24:24;12.20;99.90
13072;DHT22;6602;58.934;11.166;2023-05-07T15:29:33;12.10;99.90
13072;DHT22;6602;58.934;11.166;2023-05-07T15:34:36;12.00;99.90
13072;DHT22;6602;58.934;11.166;2023-05-07T15:39:38;11.80;99.90
13072;DHT22;6602;58.934;11.166;2023-05-07T15:44:52;11.70;99.90
13072;DHT22;6602;58.934;11.166;2023-05-07T15:49:54;11.70;99.90
13072;DHT22;6602;58.934;11.166;2023-05-07T15:55:01;11.70;99.90
13072;DHT22;6602;58.934;11.166;2023-05-07T16:00:21;11.70;99.90
13072;DHT22;6602;58.934;11.166;2023-05-07T16:05:34;11.60;99.90
13072;DHT22;6602;58.934;11.166;2023-05-07T16:10:52;11.50;99.90
13072;DHT22;6602;58.934;11.166;2023-05-07T16:16:09;11.40;99.90
13072;DHT22;6602;58.934;11.166;2023-05-07T16:21:16;11.30;99.90
13072;DHT22;6602;58.934;11.166;2023-05-07T16:26:21;11.20;99.90
13072;DHT22;6602;58.934;11.166;2023-05-07T16:31:33;11.10;99.90
13072;DHT22;6602;58.934;11.166;2023-05-07T16:36:37;11.00;99.90
13072;DHT22;6602;58.934;11.166;2023-05-07T16:41:56;10.90;99.90
13072;DHT22;6602;58.934;11.166;2023-05-07T16:47:00;10.90;99.90
13072;DHT22;6602;58.934;11.166;2023-05-07T16:52:04;10.80;99.90
13072;DHT22;6602;58.934;11.166;2023-05-07T16:57:09;10.90;99.90
13072;DHT22;6602;58.934;11.166;2023-05-07T17:02:10;10.90;99.90
13072;DHT22;6602;58.934;11.166;2023-05-07T17:07:11;10.90;99.90
13072;DHT22;6602;58.934;11.166;2023-05-07T17:12:12;10.90;99.90
13072;DHT22;6602;58.934;11.166;2023-05-07T17:17:13;10.90;99.90
13072;DHT22;6602;58.934;11.166;2023-05-07T17:22:16;11.00;99.90
13072;DHT22;6602;58.934;11.166;2023-05-07T17:27:20;11.00;99.90
13072;DHT22;6602;58.934;11.166;2023-05-07T17:32:23;11.00;99.90
13072;DHT22;6602;58.934;11.166;2023-05-07T17:37:27;11.00;99.90
13072;DHT22;6602;58.934;11.166;2023-05-07T17:42:32;11.00;99.90
13072;DHT22;6602;58.934;11.166;2023-05-07T17:47:34;11.00;99.90
13072;DHT22;6602;58.934;11.166;2023-05-07T17:52:37;11.10;99.90
13072;DHT22;6602;58.934;11.166;2023-05-07T17:57:42;11.00;99.90
13072;DHT22;6602;58.934;11.166;2023-05-07T18:02:52;11.00;99.90
13072;DHT22;6602;58.934;11.166;2023-05-07T18:08:12;11.00;99.90
13072;DHT22;6602;58.934;11.166;2023-05-07T18:13:32;11.00;99.90
13072;DHT22;6602;58.934;11.166;2023-05-07T18:18:47;10.90;99.90
13072;DHT22;6602;58.934;11.166;2023-05-07T18:23:50;10.80;99.90
13072;DHT22;6602;58.934;11.166;2023-05-07T18:29:06;10.70;99.90
13072;DHT22;6602;58.934;11.166;2023-05-07T18:34:09;10.40;99.90
13072;DHT22;6602;58.934;11.166;2023-05-07T18:39:13;10.30;99.90
13072;DHT22;6602;58.934;11.166;2023-05-07T18:44:24;10.10;99.90
13072;DHT22;6602;58.934;11.166;2023-05-07T18:49:27;10.10;99.90
13072;DHT22;6602;58.934;11.166;2023-05-07T18:54:29;10.00;99.90
13072;DHT22;6602;58.934;11.166;2023-05-07T18:59:30;10.00;99.90
13072;DHT22;6602;58.934;11.166;2023-05-07T19:04:34;9.90;99.90
13072;DHT22;6602;58.934;11.166;2023-05-07T19:09:36;9.70;99.90
13072;DHT22;6602;58.934;11.166;2023-05-07T19:14:37;9.60;99.90
13072;DHT22;6602;58.934;11.166;2023-05-07T19:19:41;9.30;99.90
13072;DHT22;6602;58.934;11.166;2023-05-07T19:24:43;9.10;99.90
13072;DHT22;6602;58.934;11.166;2023-05-07T19:29:44;8.90;99.90
13072;DHT22;6602;58.934;11.166;2023-05-07T19:34:47;8.80;99.90
13072;DHT22;6602;58.934;11.166;2023-05-07T19:39:53;8.70;99.90
13072;DHT22;6602;58.934;11.166;2023-05-07T19:44:54;8.60;99.90
13072;DHT22;6602;58.934;11.166;2023-05-07T19:49:57;8.50;99.90
13072;DHT22;6602;58.934;11.166;2023-05-07T19:54:57;8.20;99.90
13072;DHT22;6602;58.934;11.166;2023-05-07T20:00:01;8.10;99.90
13072;DHT22;6602;58.934;11.166;2023-05-07T20:05:09;7.90;99.90
13072;DHT22;6602;58.934;11.166;2023-05-07T20:10:10;7.70;99.90
13072;DHT22;6602;58.934;11.166;2023-05-07T20:15:28;7.50;99.90
13072;DHT22;6602;58.934;11.166;2023-05-07T20:20:29;7.30;99.90
13072;DHT22;6602;58.934;11.166;2023-05-07T20:25:31;7.40;99.90
13072;DHT22;6602;58.934;11.166;2023-05-07T20:30:33;7.30;99.90
13072;DHT22;6602;58.934;11.166;2023-05-07T20:35:38;7.40;99.90
13072;DHT22;6602;58.934;11.166;2023-05-07T20:40:40;7.40;99.90
13072;DHT22;6602;58.934;11.166;2023-05-07T20:45:44;7.00;99.90
13072;DHT22;6602;58.934;11.166;2023-05-07T20:50:45;7.10;99.90
13072;DHT22;6602;58.934;11.166;2023-05-07T20:55:46;7.00;99.90
13072;DHT22;6602;58.934;11.166;2023-05-07T21:00:47;6.90;99.90
13072;DHT22;6602;58.934;11.166;2023-05-07T21:05:53;6.80;99.90
13072;DHT22;6602;58.934;11.166;2023-05-07T21:10:55;6.60;99.90
13072;DHT22;6602;58.934;11.166;2023-05-07T21:15:56;6.50;99.90
13072;DHT22;6602;58.934;11.166;2023-05-07T21:20:57;6.50;99.90
13072;DHT22;6602;58.934;11.166;2023-05-07T21:26:01;6.40;99.90
13072;DHT22;6602;58.934;11.166;2023-05-07T21:31:12;6.20;99.90
13072;DHT22;6602;58.934;11.166;2023-05-07T21:36:19;6.10;99.90
13072;DHT22;6602;58.934;11.166;2023-05-07T21:41:20;6.00;99.90
13072;DHT22;6602;58.934;11.166;2023-05-07T21:46:21;5.90;99.90
13072;DHT22;6602;58.934;11.166;2023-05-07T21:51:24;5.70;99.90
13072;DHT22;6602;58.934;11.166;2023-05-07T21:56:27;5.60;99.90
13072;DHT22;6602;58.934;11.166;2023-05-07T22:01:28;5.60;99.90
13072;DHT22;6602;58.934;11.166;2023-05-07T22:06:32;5.50;99.90
13072;DHT22;6602;58.934;11.166;2023-05-07T22:11:33;5.30;99.90
13072;DHT22;6602;58.934;11.166;2023-05-07T22:16:35;5.30;99.90
13072;DHT22;6602;58.934;11.166;2023-05-07T22:21:38;5.10;99.90
13072;DHT22;6602;58.934;11.166;2023-05-07T22:26:40;5.10;99.90
13072;DHT22;6602;58.934;11.166;2023-05-07T22:31:41;5.00;99.90
13072;DHT22;6602;58.934;11.166;2023-05-07T22:36:42;4.90;99.90
13072;DHT22;6602;58.934;11.166;2023-05-07T22:41:46;4.90;99.90
13072;DHT22;6602;58.934;11.166;2023-05-07T22:46:47;4.90;99.90
13072;DHT22;6602;58.934;11.166;2023-05-07T22:51:49;4.90;99.90
13072;DHT22;6602;58.934;11.166;2023-05-07T22:56:54;4.90;99.90
13072;DHT22;6602;58.934;11.166;2023-05-07T23:01:59;4.80;99.90
13072;DHT22;6602;58.934;11.166;2023-05-07T23:07:00;4.80;99.90
13072;DHT22;6602;58.934;11.166;2023-05-07T23:12:02;4.80;99.90
13072;DHT22;6602;58.934;11.166;2023-05-07T23:17:04;4.70;99.90
13072;DHT22;6602;58.934;11.166;2023-05-07T23:22:05;4.70;99.90
13072;DHT22;6602;58.934;11.166;2023-05-07T23:27:06;4.70;99.90
13072;DHT22;6602;58.934;11.166;2023-05-07T23:32:08;4.60;99.90
13072;DHT22;6602;58.934;11.166;2023-05-07T23:37:09;4.50;99.90
13072;DHT22;6602;58.934;11.166;2023-05-07T23:42:10;4.50;99.90
13072;DHT22;6602;58.934;11.166;2023-05-07T23:47:11;4.50;99.90
13072;DHT22;6602;58.934;11.166;2023-05-07T23:52:12;4.40;99.90
13072;DHT22;6602;58.934;11.166;2023-05-07T23:57:13;4.30;99.90
